Time;durP1;ratioP1;P1;durP2;ratioP2;P2;SDS_P1;SDS_P2;PMS_P1;PMS_P2;Temp;Humidity;BMP_temperature;BMP_pressure;BME280_temperature;BME280_humidity;BME280_pressure;Samples;Min_cycle;Max_cycle;Signal;HPM_P1;HPM_P2
2022/07/08 00:02:16;;;;;;;7.17;1.70;;;18.80;65.70;;;;;;5041247;28;20479;-76
2022/07/08 00:04:46;;;;;;;5.93;1.70;;;18.70;65.70;;;;;;5047439;28;20957;-76
2022/07/08 00:07:14;;;;;;;7.13;1.90;;;18.70;65.80;;;;;;5050113;28;20476;-75
2022/07/08 00:09:42;;;;;;;5.97;2.20;;;18.80;65.80;;;;;;5047609;28;20477;-75
2022/07/08 00:12:10;;;;;;;9.30;2.43;;;18.80;65.80;;;;;;5045302;28;20545;-76
2022/07/08 00:14:38;;;;;;;7.30;1.77;;;18.80;65.80;;;;;;5031268;28;20465;-75
2022/07/08 00:17:06;;;;;;;8.73;2.20;;;18.80;65.70;;;;;;5041285;28;20883;-76
2022/07/08 00:19:36;;;;;;;5.90;1.90;;;18.80;65.70;;;;;;5044137;28;20460;-77
2022/07/08 00:22:04;;;;;;;5.30;1.93;;;18.80;65.60;;;;;;5045926;28;20456;-76
2022/07/08 00:24:32;;;;;;;12.70;2.10;;;18.80;65.60;;;;;;5041473;28;20479;-77
2022/07/08 00:27:02;;;;;;;13.33;2.20;;;18.70;65.40;;;;;;5046565;28;20508;-76
2022/07/08 00:29:30;;;;;;;6.43;2.00;;;18.70;65.40;;;;;;5040740;28;21958;-76
2022/07/08 00:31:58;;;;;;;5.60;1.90;;;18.60;65.20;;;;;;5041342;28;20560;-76
2022/07/08 00:34:26;;;;;;;4.97;1.80;;;18.60;65.00;;;;;;5031186;28;20453;-76
2022/07/08 00:36:56;;;;;;;6.80;1.70;;;18.50;65.20;;;;;;5033160;28;21084;-78
2022/07/08 00:39:24;;;;;;;7.90;2.40;;;18.50;65.20;;;;;;5046386;28;20451;-76
2022/07/08 00:41:52;;;;;;;9.30;2.20;;;18.50;65.20;;;;;;5045190;28;20445;-76
2022/07/08 00:44:20;;;;;;;7.83;2.33;;;18.50;65.10;;;;;;5037886;28;20496;-76
2022/07/08 00:46:48;;;;;;;8.87;2.47;;;18.50;65.00;;;;;;5031223;28;20898;-76
2022/07/08 00:49:19;;;;;;;9.43;1.97;;;18.40;64.90;;;;;;5048849;28;20460;-76
2022/07/08 00:51:48;;;;;;;5.67;1.70;;;18.40;64.90;;;;;;5027041;28;20999;-76
2022/07/08 00:54:21;;;;;;;6.63;1.73;;;18.40;64.90;;;;;;5028679;28;20975;-75
2022/07/08 00:56:49;;;;;;;7.43;1.93;;;18.40;64.80;;;;;;5035643;28;20486;-76
2022/07/08 00:59:17;;;;;;;11.77;2.67;;;18.40;64.80;;;;;;5047223;28;20468;-76
2022/07/08 01:01:45;;;;;;;7.47;1.93;;;18.40;64.80;;;;;;5040455;28;20488;-76
2022/07/08 01:04:14;;;;;;;6.00;1.67;;;18.30;64.80;;;;;;5043681;28;20452;-75
2022/07/08 01:06:42;;;;;;;10.30;2.00;;;18.30;64.70;;;;;;5049256;28;20513;-76
2022/07/08 01:09:11;;;;;;;8.60;2.33;;;18.30;64.70;;;;;;5026101;28;20470;-76
2022/07/08 01:11:40;;;;;;;6.23;1.90;;;18.30;64.80;;;;;;5044648;28;20458;-76
2022/07/08 01:14:08;;;;;;;6.43;1.80;;;18.30;64.80;;;;;;5046800;28;21063;-77
2022/07/08 01:16:37;;;;;;;6.70;1.97;;;18.20;64.80;;;;;;5044144;28;20482;-76
2022/07/08 01:19:05;;;;;;;7.60;2.30;;;18.20;64.90;;;;;;5035589;28;20456;-76
2022/07/08 01:21:35;;;;;;;7.70;2.00;;;18.20;64.80;;;;;;5023704;28;20536;-76
2022/07/08 01:24:03;;;;;;;8.40;1.87;;;18.20;64.90;;;;;;5033069;28;20467;-76
2022/07/08 01:26:31;;;;;;;8.50;1.90;;;18.20;65.00;;;;;;5044507;28;20559;-76
2022/07/08 01:29:00;;;;;;;9.57;2.33;;;18.20;65.00;;;;;;5028776;28;20935;-76
2022/07/08 01:31:28;;;;;;;8.63;2.57;;;18.20;65.10;;;;;;5045625;28;20481;-76
2022/07/08 01:33:56;;;;;;;9.20;2.43;;;18.20;65.10;;;;;;5047487;28;21254;-76
2022/07/08 01:36:24;;;;;;;12.00;2.20;;;18.20;65.10;;;;;;5047088;28;20478;-76
2022/07/08 01:38:53;;;;;;;6.10;1.83;;;18.20;65.20;;;;;;5047382;28;20458;-76
2022/07/08 01:41:24;;;;;;;6.90;2.10;;;18.20;65.20;;;;;;5046338;28;20473;-76
2022/07/08 01:43:52;;;;;;;10.30;3.13;;;18.20;65.30;;;;;;5027241;28;20473;-76
2022/07/08 01:46:20;;;;;;;8.20;2.17;;;18.20;65.20;;;;;;5047980;28;21075;-76
2022/07/08 01:48:48;;;;;;;8.10;2.40;;;18.20;65.20;;;;;;5054740;28;21233;-75
2022/07/08 01:51:16;;;;;;;6.73;2.50;;;18.20;65.30;;;;;;5045688;28;20474;-75
2022/07/08 01:53:44;;;;;;;7.80;2.17;;;18.20;65.40;;;;;;5049080;28;20887;-77
2022/07/08 01:56:13;;;;;;;5.67;1.80;;;18.10;65.40;;;;;;5044589;28;20487;-77
2022/07/08 01:58:41;;;;;;;6.70;2.03;;;18.10;65.50;;;;;;5045344;28;20463;-77
2022/07/08 02:01:09;;;;;;;9.40;2.30;;;18.10;65.50;;;;;;5045237;28;21098;-76
2022/07/08 02:03:37;;;;;;;6.27;1.87;;;18.10;65.60;;;;;;5027542;28;21300;-77
2022/07/08 02:06:08;;;;;;;10.83;2.13;;;18.10;65.70;;;;;;5027293;28;20472;-77
2022/07/08 02:08:36;;;;;;;5.53;1.43;;;18.10;65.70;;;;;;5025610;28;20560;-77
2022/07/08 02:13:51;;;;;;;8.23;2.23;;;18.10;65.80;;;;;;5045574;28;20497;-77
2022/07/08 02:16:22;;;;;;;5.37;1.93;;;18.10;65.90;;;;;;5047340;28;20500;-77
2022/07/08 02:18:50;;;;;;;5.30;1.70;;;18.10;65.90;;;;;;5043738;28;20957;-77
2022/07/08 02:21:18;;;;;;;5.27;1.90;;;18.10;65.90;;;;;;5040109;28;20444;-77
2022/07/08 02:23:46;;;;;;;7.17;1.90;;;18.10;65.90;;;;;;5045750;28;20570;-77
2022/07/08 02:26:14;;;;;;;8.63;2.93;;;18.10;65.90;;;;;;5026535;28;20582;-77
2022/07/08 02:28:42;;;;;;;8.20;2.43;;;18.20;65.90;;;;;;5042251;28;20827;-77
2022/07/08 02:31:11;;;;;;;11.40;2.70;;;18.20;65.90;;;;;;5043605;28;20809;-76
2022/07/08 02:33:39;;;;;;;8.07;2.53;;;18.20;65.90;;;;;;5043612;28;20463;-77
2022/07/08 02:36:09;;;;;;;7.03;1.93;;;18.10;65.80;;;;;;5029077;28;20487;-77
2022/07/08 02:38:38;;;;;;;6.73;1.83;;;18.10;65.80;;;;;;5013790;28;20461;-77
2022/07/08 02:41:06;;;;;;;7.60;2.33;;;18.10;65.80;;;;;;5045797;28;20958;-77
2022/07/08 02:43:33;;;;;;;8.57;1.83;;;18.10;66.00;;;;;;5045502;28;20460;-76
2022/07/08 02:46:01;;;;;;;5.70;2.00;;;18.10;66.00;;;;;;5045998;28;20570;-77
2022/07/08 02:48:31;;;;;;;9.10;2.03;;;18.10;66.00;;;;;;5043621;28;20460;-77
2022/07/08 02:50:59;;;;;;;9.27;2.43;;;18.10;66.00;;;;;;5045394;28;20575;-77
2022/07/08 02:53:27;;;;;;;7.63;2.13;;;18.20;66.00;;;;;;5043747;28;20447;-77
2022/07/08 02:55:55;;;;;;;8.33;2.20;;;18.20;66.00;;;;;;5043427;28;20497;-77
2022/07/08 02:58:23;;;;;;;7.53;2.27;;;18.10;66.00;;;;;;5032539;28;20541;-77
2022/07/08 03:00:51;;;;;;;8.80;2.00;;;18.10;66.00;;;;;;5016960;28;21015;-76
2022/07/08 03:03:19;;;;;;;8.40;2.00;;;18.20;66.00;;;;;;5024319;28;20472;-77
2022/07/08 03:05:48;;;;;;;7.73;2.37;;;18.10;66.00;;;;;;5027246;28;20459;-77
2022/07/08 03:08:17;;;;;;;7.30;2.33;;;18.10;66.00;;;;;;5039466;28;20492;-77
2022/07/08 03:10:45;;;;;;;5.10;1.90;;;18.10;66.00;;;;;;5024798;28;20996;-77
2022/07/08 03:13:12;;;;;;;8.07;2.20;;;18.10;66.00;;;;;;5045703;28;20459;-77
2022/07/08 03:15:40;;;;;;;8.67;2.50;;;18.10;66.00;;;;;;5046447;28;20478;-77
2022/07/08 03:18:09;;;;;;;6.43;2.23;;;18.10;66.00;;;;;;5041742;28;20491;-77
2022/07/08 03:20:38;;;;;;;7.17;2.13;;;18.10;66.00;;;;;;5042884;28;21019;-77
2022/07/08 03:23:08;;;;;;;8.87;2.27;;;18.00;66.00;;;;;;5028390;28;20470;-77
2022/07/08 03:25:36;;;;;;;12.40;2.83;;;18.00;66.00;;;;;;5031488;28;21400;-76
2022/07/08 03:28:04;;;;;;;12.73;2.43;;;18.00;66.20;;;;;;5025995;28;21138;-76
2022/07/08 03:30:33;;;;;;;8.07;1.97;;;18.00;66.20;;;;;;5042479;28;20472;-77
2022/07/08 03:33:02;;;;;;;7.20;2.00;;;18.00;66.20;;;;;;5043283;28;20458;-77
2022/07/08 03:35:30;;;;;;;6.53;1.73;;;18.00;66.20;;;;;;5019319;28;20478;-77
2022/07/08 03:37:58;;;;;;;7.37;2.20;;;18.00;66.20;;;;;;5039553;28;20512;-77
2022/07/08 03:43:17;;;;;;;9.10;2.40;;;18.00;66.40;;;;;;5041921;28;20452;-77
2022/07/08 03:45:45;;;;;;;8.00;1.90;;;18.00;66.20;;;;;;5047606;28;20574;-77
2022/07/08 03:48:13;;;;;;;6.20;1.60;;;18.00;66.40;;;;;;5045163;28;20479;-77
2022/07/08 03:50:42;;;;;;;5.07;2.00;;;18.00;66.40;;;;;;5045027;28;20466;-77
2022/07/08 03:53:10;;;;;;;7.00;2.30;;;18.00;66.40;;;;;;5049678;28;20466;-76
2022/07/08 03:55:39;;;;;;;5.53;2.40;;;18.00;66.40;;;;;;5030164;28;20542;-77
2022/07/08 03:58:07;;;;;;;7.90;3.27;;;18.00;66.50;;;;;;5039667;28;20487;-77
2022/07/08 04:00:35;;;;;;;10.30;1.90;;;18.00;66.50;;;;;;5045657;28;20557;-76
2022/07/08 04:03:06;;;;;;;7.83;3.40;;;17.90;66.50;;;;;;5018830;28;20463;-77
2022/07/08 04:05:34;;;;;;;9.23;2.63;;;17.90;66.60;;;;;;5045355;28;20450;-77
2022/07/08 04:08:03;;;;;;;5.53;2.23;;;17.90;66.70;;;;;;5048170;28;20496;-77
2022/07/08 04:10:31;;;;;;;9.73;2.13;;;18.00;66.80;;;;;;5045728;28;20475;-78
2022/07/08 04:13:00;;;;;;;8.07;1.97;;;18.00;66.90;;;;;;5029345;28;20469;-78
2022/07/08 04:15:29;;;;;;;8.07;2.57;;;18.00;66.90;;;;;;5047803;28;20575;-78
2022/07/08 04:17:57;;;;;;;8.37;2.53;;;18.00;66.80;;;;;;5033252;28;20896;-78
2022/07/08 04:20:25;;;;;;;5.83;2.10;;;18.00;66.90;;;;;;5028668;28;20494;-78
2022/07/08 04:22:53;;;;;;;10.03;2.47;;;18.00;66.90;;;;;;5028629;28;20544;-79
2022/07/08 04:25:21;;;;;;;8.10;2.37;;;18.00;67.00;;;;;;5028201;28;21190;-77
2022/07/08 04:27:49;;;;;;;14.97;2.30;;;18.00;67.00;;;;;;5034238;28;20486;-78
2022/07/08 04:30:18;;;;;;;11.53;2.80;;;18.00;67.00;;;;;;5024951;28;20463;-78
2022/07/08 04:32:48;;;;;;;7.83;2.90;;;18.00;67.00;;;;;;5050834;28;20546;-78
2022/07/08 04:35:16;;;;;;;9.77;2.50;;;18.00;67.00;;;;;;5030945;28;20462;-77
2022/07/08 04:37:44;;;;;;;9.10;2.27;;;18.00;67.00;;;;;;5043645;28;20493;-77
2022/07/08 04:40:13;;;;;;;7.40;2.20;;;18.00;67.00;;;;;;5043736;28;20455;-78
2022/07/08 04:42:41;;;;;;;9.20;2.67;;;18.00;67.00;;;;;;5043636;28;21506;-77
2022/07/08 04:45:10;;;;;;;9.50;2.50;;;17.90;67.10;;;;;;5042238;28;20468;-77
2022/07/08 04:47:39;;;;;;;4.73;2.03;;;17.90;67.10;;;;;;5045385;28;20479;-77
2022/07/08 04:50:08;;;;;;;10.97;2.73;;;17.90;67.20;;;;;;5045399;28;20443;-77
2022/07/08 04:52:36;;;;;;;7.43;2.00;;;17.90;67.20;;;;;;5042012;28;20482;-76
2022/07/08 04:55:05;;;;;;;6.47;2.40;;;17.90;67.30;;;;;;5044774;28;20455;-76
2022/07/08 04:57:33;;;;;;;5.70;2.23;;;17.90;67.30;;;;;;5041480;28;20493;-77
2022/07/08 05:00:01;;;;;;;7.67;2.20;;;18.00;67.40;;;;;;5044644;28;20461;-77
2022/07/08 05:02:29;;;;;;;7.70;2.30;;;18.00;67.40;;;;;;5019129;28;21050;-77
2022/07/08 05:04:59;;;;;;;6.77;2.30;;;18.00;67.40;;;;;;5028902;28;20458;-77
2022/07/08 05:07:27;;;;;;;7.67;2.97;;;18.00;67.40;;;;;;5042317;28;20497;-78
2022/07/08 05:09:55;;;;;;;6.00;2.07;;;18.00;67.40;;;;;;5025898;28;20469;-78
2022/07/08 05:12:23;;;;;;;4.80;1.80;;;18.10;67.40;;;;;;5047429;28;20474;-77
2022/07/08 05:14:51;;;;;;;9.50;3.00;;;18.10;67.30;;;;;;5047685;28;21503;-76
2022/07/08 05:17:19;;;;;;;6.83;1.97;;;18.20;67.40;;;;;;5039433;28;20502;-77
2022/07/08 05:19:47;;;;;;;16.00;2.17;;;18.40;67.70;;;;;;5030393;28;21017;-77
2022/07/08 05:22:16;;;;;;;5.60;1.93;;;18.60;67.60;;;;;;5027122;28;20452;-78
2022/07/08 05:24:44;;;;;;;5.93;1.83;;;18.90;67.40;;;;;;5045428;28;20446;-77
2022/07/08 05:27:12;;;;;;;7.70;2.47;;;19.10;67.10;;;;;;5043533;28;20489;-77
2022/07/08 05:29:40;;;;;;;5.90;2.10;;;19.30;66.90;;;;;;5027363;28;20463;-77
2022/07/08 05:32:08;;;;;;;9.33;1.97;;;19.50;66.60;;;;;;5030746;28;20999;-77
2022/07/08 05:34:38;;;;;;;11.30;2.30;;;19.70;66.30;;;;;;5053264;28;20944;-77
2022/07/08 05:37:06;;;;;;;8.40;1.80;;;19.90;66.50;;;;;;5024620;28;20493;-77
2022/07/08 05:39:35;;;;;;;6.00;1.70;;;20.10;66.50;;;;;;5047612;28;20450;-77
2022/07/08 05:42:04;;;;;;;7.27;1.63;;;20.40;66.00;;;;;;5047186;28;20457;-76
2022/07/08 05:44:32;;;;;;;6.00;1.40;;;20.80;65.40;;;;;;5045759;28;20462;-77
2022/07/08 05:47:00;;;;;;;7.60;1.80;;;21.40;63.70;;;;;;5040279;28;21020;-77
2022/07/08 05:49:28;;;;;;;5.53;1.57;;;21.90;62.80;;;;;;5044663;28;20455;-77
2022/07/08 05:51:56;;;;;;;7.80;1.70;;;22.80;61.20;;;;;;5044408;28;20478;-76
2022/07/08 05:54:24;;;;;;;5.43;1.23;;;23.70;59.70;;;;;;5046001;28;20454;-77
2022/07/08 05:56:53;;;;;;;6.87;1.50;;;24.50;58.40;;;;;;5046860;28;20487;-77
2022/07/08 05:59:21;;;;;;;6.57;1.70;;;24.90;56.80;;;;;;5044953;28;20818;-77
2022/07/08 06:01:49;;;;;;;4.57;1.33;;;24.40;55.60;;;;;;5048204;28;20579;-76
2022/07/08 06:04:17;;;;;;;8.70;1.70;;;23.80;55.90;;;;;;5047608;28;20456;-76
2022/07/08 06:06:51;;;;;;;6.63;1.40;;;23.50;56.30;;;;;;5042258;28;20483;-76
2022/07/08 06:09:19;;;;;;;6.93;2.10;;;23.10;56.40;;;;;;5043936;28;20474;-76
2022/07/08 06:11:47;;;;;;;10.40;2.10;;;22.90;56.60;;;;;;5045380;28;21259;-76
2022/07/08 06:14:17;;;;;;;7.23;1.50;;;22.70;56.60;;;;;;5039228;28;20509;-76
2022/07/08 06:16:47;;;;;;;5.03;1.50;;;22.30;56.60;;;;;;5040893;28;20491;-76
2022/07/08 06:19:15;;;;;;;9.17;1.87;;;21.90;56.70;;;;;;5025372;28;20459;-76
2022/07/08 06:21:44;;;;;;;8.77;2.00;;;21.50;57.00;;;;;;5043706;28;20458;-76
2022/07/08 06:24:12;;;;;;;5.40;1.80;;;21.10;57.50;;;;;;5046482;28;20451;-76
2022/07/08 06:26:43;;;;;;;6.20;1.50;;;20.90;57.90;;;;;;5038097;28;20479;-77
2022/07/08 06:29:11;;;;;;;7.60;2.03;;;20.70;58.10;;;;;;5041113;28;20468;-77
2022/07/08 06:31:41;;;;;;;4.60;1.50;;;20.50;58.20;;;;;;5047656;28;20482;-77
2022/07/08 06:34:09;;;;;;;5.60;1.90;;;20.30;58.20;;;;;;5025243;28;20474;-77
2022/07/08 06:36:37;;;;;;;4.57;1.60;;;20.00;58.50;;;;;;5038914;28;20987;-77
2022/07/08 06:39:05;;;;;;;7.00;1.87;;;19.80;58.90;;;;;;5043011;28;20454;-77
2022/07/08 06:41:33;;;;;;;7.33;1.50;;;19.70;59.30;;;;;;5025488;28;20843;-77
2022/07/08 06:44:01;;;;;;;6.27;1.50;;;19.70;59.40;;;;;;5047825;28;20448;-78
2022/07/08 06:46:29;;;;;;;8.17;2.10;;;19.50;59.30;;;;;;5025440;28;20990;-78
2022/07/08 06:48:58;;;;;;;5.70;1.50;;;19.40;59.60;;;;;;5046747;28;20456;-78
2022/07/08 06:51:26;;;;;;;10.33;2.90;;;19.40;59.90;;;;;;5030308;28;21071;-77
2022/07/08 06:56:40;;;;;;;8.47;2.07;;;19.30;60.00;;;;;;5040435;28;20488;-77
2022/07/08 06:59:08;;;;;;;6.50;1.73;;;19.30;60.30;;;;;;5041047;28;21138;-79
2022/07/08 07:01:36;;;;;;;6.73;1.87;;;19.30;60.40;;;;;;5041534;28;20572;-78
2022/07/08 07:04:05;;;;;;;7.50;1.50;;;19.20;60.50;;;;;;5028482;28;20550;-78
2022/07/08 07:06:33;;;;;;;7.93;1.87;;;19.30;60.50;;;;;;5027446;28;20482;-78
2022/07/08 07:09:01;;;;;;;6.00;1.30;;;19.20;60.70;;;;;;5027612;28;20476;-78
2022/07/08 07:11:29;;;;;;;8.10;1.90;;;19.30;60.60;;;;;;5020020;28;20463;-78
2022/07/08 07:13:57;;;;;;;5.13;1.27;;;19.30;60.60;;;;;;5028025;28;20556;-78
2022/07/08 07:16:31;;;;;;;7.27;1.80;;;19.40;60.60;;;;;;5052583;28;20564;-79
2022/07/08 07:18:59;;;;;;;10.83;1.90;;;19.40;60.60;;;;;;5029118;28;20456;-76
2022/07/08 07:21:29;;;;;;;7.03;1.77;;;19.40;60.60;;;;;;5055467;28;21181;-77
2022/07/08 07:23:57;;;;;;;5.30;1.93;;;19.40;60.60;;;;;;5048437;28;20452;-77
2022/07/08 07:26:25;;;;;;;6.90;1.40;;;19.50;60.50;;;;;;5049754;28;20469;-77
2022/07/08 07:28:54;;;;;;;6.53;1.50;;;19.50;60.60;;;;;;5047088;28;20460;-78
2022/07/08 07:31:22;;;;;;;6.20;1.20;;;19.50;60.50;;;;;;5048598;28;21183;-77
2022/07/08 07:33:50;;;;;;;6.30;1.70;;;19.50;60.60;;;;;;5046773;28;20489;-77
2022/07/08 07:36:18;;;;;;;6.57;1.53;;;19.50;60.60;;;;;;5048577;28;20472;-77
2022/07/08 07:38:47;;;;;;;5.97;1.63;;;19.60;60.50;;;;;;5053664;28;20463;-77
2022/07/08 07:41:16;;;;;;;7.00;1.27;;;19.60;60.20;;;;;;5048778;28;20461;-78
2022/07/08 07:43:44;;;;;;;5.87;1.60;;;19.50;60.20;;;;;;5048810;28;20456;-76
2022/07/08 07:46:12;;;;;;;7.03;1.50;;;19.40;60.30;;;;;;5049313;28;20478;-77
2022/07/08 07:48:40;;;;;;;4.73;1.87;;;19.40;60.50;;;;;;5048280;28;20821;-77
2022/07/08 07:51:08;;;;;;;27.00;16.30;;;19.50;60.60;;;;;;5046238;28;21028;-78
2022/07/08 07:53:36;;;;;;;17.37;8.30;;;19.60;60.60;;;;;;5046710;28;20476;-78
2022/07/08 07:56:07;;;;;;;9.77;4.13;;;19.70;60.60;;;;;;5039421;28;20511;-76
2022/07/08 07:58:38;;;;;;;10.03;1.60;;;19.70;60.60;;;;;;5033067;28;20468;-76
2022/07/08 08:01:06;;;;;;;6.87;1.40;;;19.80;60.40;;;;;;5024246;28;20478;-76
2022/07/08 08:03:34;;;;;;;9.47;1.90;;;19.70;60.10;;;;;;5023939;28;20460;-76
2022/07/08 08:06:04;;;;;;;8.43;2.17;;;19.70;60.10;;;;;;5045621;28;20457;-76
2022/07/08 08:08:32;;;;;;;5.27;1.80;;;19.60;60.20;;;;;;5030767;28;20464;-76
2022/07/08 08:11:01;;;;;;;9.40;2.40;;;19.60;60.20;;;;;;5052237;28;21204;-76
2022/07/08 08:13:30;;;;;;;5.63;1.80;;;19.60;60.30;;;;;;5046502;28;20482;-76
2022/07/08 08:15:58;;;;;;;7.17;1.60;;;19.60;60.30;;;;;;5043418;28;20499;-76
2022/07/08 08:18:26;;;;;;;6.87;1.70;;;19.60;60.30;;;;;;5045867;28;20462;-77
2022/07/08 08:20:55;;;;;;;4.60;1.20;;;19.60;60.40;;;;;;5049912;28;20524;-77
2022/07/08 08:23:23;;;;;;;9.03;1.70;;;19.70;60.40;;;;;;5028740;28;20460;-76
2022/07/08 08:25:51;;;;;;;7.00;1.70;;;19.70;60.40;;;;;;5027518;28;20460;-76
2022/07/08 08:28:19;;;;;;;8.43;2.00;;;19.70;60.30;;;;;;5030219;28;20501;-76
2022/07/08 08:30:48;;;;;;;8.87;2.00;;;19.70;60.30;;;;;;5025564;28;20542;-76
2022/07/08 08:33:16;;;;;;;3.87;1.47;;;19.80;60.20;;;;;;5045814;28;20465;-76
2022/07/08 08:35:44;;;;;;;12.63;1.97;;;19.80;60.10;;;;;;5029779;28;20843;-75
2022/07/08 08:38:12;;;;;;;6.40;1.67;;;19.70;60.20;;;;;;5046482;28;20482;-76
2022/07/08 08:40:43;;;;;;;7.20;1.47;;;19.80;60.20;;;;;;5043014;28;20453;-76
2022/07/08 08:43:11;;;;;;;5.33;1.30;;;19.80;60.20;;;;;;5044960;28;20470;-76
2022/07/08 08:45:44;;;;;;;6.60;1.57;;;19.90;60.10;;;;;;5049370;28;20559;-77
2022/07/08 08:48:15;;;;;;;4.50;1.33;;;20.00;60.00;;;;;;5047644;28;20471;-76
2022/07/08 08:50:54;;;;;;;7.23;1.70;;;20.00;59.90;;;;;;5025157;28;20468;-76
2022/07/08 08:53:27;;;;;;;4.20;1.30;;;20.00;60.00;;;;;;5044174;28;20460;-76
2022/07/08 08:55:56;;;;;;;9.97;2.57;;;20.00;59.90;;;;;;5037982;28;20465;-76
2022/07/08 08:58:25;;;;;;;6.27;1.30;;;20.00;59.90;;;;;;5023472;28;20580;-76
2022/07/08 09:00:53;;;;;;;4.40;1.20;;;20.00;60.00;;;;;;5045774;28;20568;-76
2022/07/08 09:03:23;;;;;;;6.40;1.27;;;20.10;60.10;;;;;;5045750;28;20488;-76
2022/07/08 09:05:51;;;;;;;4.50;1.27;;;20.10;60.20;;;;;;5044878;28;20441;-76
2022/07/08 09:08:19;;;;;;;5.07;1.87;;;20.20;60.20;;;;;;5033974;28;21233;-76
2022/07/08 09:10:47;;;;;;;6.50;1.70;;;20.20;60.10;;;;;;5051647;28;20465;-76
2022/07/08 09:13:16;;;;;;;5.97;1.53;;;20.20;60.00;;;;;;5030510;28;20579;-76
2022/07/08 09:15:45;;;;;;;6.63;1.97;;;20.20;60.10;;;;;;5046257;28;20472;-76
2022/07/08 09:18:15;;;;;;;9.37;1.80;;;20.30;60.10;;;;;;5051014;28;21074;-76
2022/07/08 09:20:47;;;;;;;8.03;1.70;;;20.30;60.10;;;;;;5041743;28;20447;-76
2022/07/08 09:23:18;;;;;;;7.70;2.10;;;20.30;60.00;;;;;;5040763;28;20500;-76
2022/07/08 09:25:48;;;;;;;4.43;1.43;;;20.30;60.00;;;;;;5026056;28;20466;-76
2022/07/08 09:28:16;;;;;;;6.33;1.57;;;20.30;60.00;;;;;;5046744;28;20487;-76
2022/07/08 09:30:45;;;;;;;8.20;1.60;;;20.40;60.00;;;;;;5046293;28;20483;-77
2022/07/08 09:33:13;;;;;;;8.30;1.70;;;20.40;60.00;;;;;;5030777;28;20481;-76
2022/07/08 09:35:50;;;;;;;7.80;1.87;;;20.40;60.00;;;;;;5026156;28;20520;-76
2022/07/08 09:38:21;;;;;;;9.70;1.50;;;20.50;60.10;;;;;;5044916;28;21018;-76
2022/07/08 09:41:00;;;;;;;5.33;1.57;;;20.50;60.00;;;;;;5047636;28;20463;-76
2022/07/08 09:43:28;;;;;;;6.07;1.53;;;20.60;59.90;;;;;;5043130;28;20456;-76
2022/07/08 09:46:03;;;;;;;7.40;1.67;;;20.60;59.80;;;;;;5049976;28;20474;-76
2022/07/08 09:48:32;;;;;;;7.73;2.17;;;20.60;59.70;;;;;;5019963;28;20582;-76
2022/07/08 09:51:07;;;;;;;9.13;1.60;;;20.60;59.80;;;;;;5050786;28;20461;-77
2022/07/08 09:53:37;;;;;;;7.37;1.70;;;20.60;59.80;;;;;;5026268;28;20459;-77
2022/07/08 09:56:06;;;;;;;5.67;1.87;;;20.60;59.70;;;;;;5025774;28;21098;-76
2022/07/08 09:58:36;;;;;;;5.53;1.70;;;20.70;59.70;;;;;;5028865;28;20482;-77
2022/07/08 10:01:05;;;;;;;5.30;1.73;;;20.70;59.70;;;;;;5048536;28;20478;-77
2022/07/08 10:03:35;;;;;;;6.03;1.50;;;20.80;59.70;;;;;;5044485;28;21012;-77
2022/07/08 10:06:05;;;;;;;7.97;1.87;;;20.80;59.40;;;;;;5041743;28;20952;-76
2022/07/08 10:08:35;;;;;;;3.90;1.40;;;20.80;59.30;;;;;;5046485;28;20475;-77
2022/07/08 10:11:07;;;;;;;6.53;1.47;;;20.70;59.30;;;;;;5046839;28;20464;-76
2022/07/08 10:13:36;;;;;;;10.33;1.80;;;20.70;59.40;;;;;;5042497;28;20919;-77
2022/07/08 10:16:09;;;;;;;6.50;1.77;;;20.70;59.30;;;;;;5043178;28;20528;-77
2022/07/08 10:18:39;;;;;;;6.20;1.73;;;20.70;59.10;;;;;;5033519;28;20511;-76
2022/07/08 10:21:12;;;;;;;8.10;1.43;;;20.70;59.20;;;;;;5023894;28;20466;-77
2022/07/08 10:23:46;;;;;;;5.53;1.60;;;20.70;59.30;;;;;;5041208;28;20466;-76
2022/07/08 10:26:19;;;;;;;5.13;1.63;;;20.80;59.20;;;;;;5046165;28;20447;-77
2022/07/08 10:29:01;;;;;;;7.00;1.30;;;20.80;59.20;;;;;;5023908;28;21239;-77
2022/07/08 10:31:29;;;;;;;5.97;1.30;;;20.90;59.00;;;;;;5028968;28;20561;-77
2022/07/08 10:34:01;;;;;;;6.60;1.60;;;20.80;59.00;;;;;;5042855;28;20442;-78
2022/07/08 10:36:44;;;;;;;5.07;1.60;;;20.80;58.60;;;;;;5042064;28;20482;-77
2022/07/08 10:39:13;;;;;;;6.90;1.80;;;20.80;58.80;;;;;;5046800;28;20533;-76
2022/07/08 10:41:56;;;;;;;6.73;1.47;;;20.80;58.90;;;;;;5043537;28;20582;-76
2022/07/08 10:44:52;;;;;;;7.10;2.07;;;20.90;59.00;;;;;;5039788;28;20470;-76
2022/07/08 10:47:28;;;;;;;8.37;1.60;;;20.90;58.80;;;;;;5039132;28;20481;-76
2022/07/08 10:50:06;;;;;;;7.17;1.87;;;21.00;58.70;;;;;;5046152;28;20474;-76
2022/07/08 10:52:41;;;;;;;6.63;1.80;;;21.00;58.60;;;;;;5045779;28;20450;-76
2022/07/08 10:55:13;;;;;;;4.43;1.43;;;21.00;58.60;;;;;;5028996;28;20486;-76
2022/07/08 10:57:54;;;;;;;6.37;1.70;;;21.00;58.60;;;;;;5043818;28;20566;-77
2022/07/08 11:00:23;;;;;;;5.30;1.60;;;21.00;58.50;;;;;;5046073;28;20515;-77
2022/07/08 11:02:51;;;;;;;5.20;1.90;;;21.00;58.60;;;;;;5043378;28;20532;-77
2022/07/08 11:05:37;;;;;;;6.97;1.50;;;21.00;58.60;;;;;;5049579;28;20444;-77
2022/07/08 11:08:26;;;;;;;6.47;1.70;;;21.00;58.60;;;;;;5026132;28;21027;-77
2022/07/08 11:10:55;;;;;;;10.37;2.00;;;21.00;58.20;;;;;;5029319;28;20923;-77
2022/07/08 11:13:25;;;;;;;7.40;1.70;;;21.00;58.40;;;;;;5047036;28;20443;-77
2022/07/08 11:15:55;;;;;;;6.60;1.97;;;20.90;58.50;;;;;;5045617;28;20467;-77
2022/07/08 11:18:24;;;;;;;7.47;1.73;;;20.90;58.60;;;;;;5046712;28;20470;-77
2022/07/08 11:20:59;;;;;;;4.10;1.23;;;20.90;58.50;;;;;;5043740;28;20481;-77
2022/07/08 11:23:30;;;;;;;6.10;1.63;;;21.00;58.50;;;;;;5026217;28;20472;-77
2022/07/08 11:26:00;;;;;;;9.10;2.17;;;21.00;58.70;;;;;;5031356;28;20478;-77
2022/07/08 11:28:28;;;;;;;7.73;1.27;;;21.00;58.70;;;;;;5031833;28;20562;-77
2022/07/08 11:30:57;;;;;;;5.53;1.67;;;21.10;58.70;;;;;;5047300;28;20566;-77
2022/07/08 11:33:39;;;;;;;5.53;1.63;;;21.10;58.60;;;;;;5026328;28;20439;-77
2022/07/08 11:36:15;;;;;;;6.20;1.63;;;21.10;58.60;;;;;;5039966;28;20857;-77
2022/07/08 11:38:45;;;;;;;4.97;1.60;;;21.10;58.60;;;;;;5053116;28;20457;-77
2022/07/08 11:41:14;;;;;;;7.07;1.57;;;21.20;58.50;;;;;;5045956;28;20483;-77
2022/07/08 11:43:42;;;;;;;5.63;1.53;;;21.20;58.50;;;;;;5026611;28;20843;-77
2022/07/08 11:46:18;;;;;;;8.03;1.77;;;21.20;58.50;;;;;;5041942;28;20484;-78
2022/07/08 11:48:46;;;;;;;4.57;1.20;;;21.20;58.40;;;;;;5048137;28;20513;-77
2022/07/08 11:51:15;;;;;;;5.33;1.50;;;21.30;58.30;;;;;;5045906;28;20956;-77
2022/07/08 11:53:45;;;;;;;4.10;1.30;;;21.30;58.30;;;;;;5046876;28;20458;-77
2022/07/08 11:56:14;;;;;;;5.90;1.70;;;21.30;58.20;;;;;;5031673;28;20469;-77
2022/07/08 11:58:42;;;;;;;5.60;1.30;;;21.30;58.20;;;;;;5032265;28;20549;-77
2022/07/08 12:01:18;;;;;;;5.13;1.97;;;21.40;58.20;;;;;;5028384;28;20478;-77
2022/07/08 12:03:46;;;;;;;4.20;1.40;;;21.50;58.00;;;;;;5043884;28;20445;-77
2022/07/08 12:06:22;;;;;;;6.20;1.80;;;21.50;57.90;;;;;;5024555;28;20455;-78
2022/07/08 12:08:52;;;;;;;5.93;1.73;;;21.50;57.90;;;;;;5042161;28;20446;-77
2022/07/08 12:11:21;;;;;;;6.03;1.67;;;21.50;58.00;;;;;;5027013;28;20455;-77
2022/07/08 12:13:50;;;;;;;8.73;2.10;;;21.50;58.10;;;;;;5046492;28;21023;-77
2022/07/08 12:16:29;;;;;;;5.83;1.37;;;21.60;58.10;;;;;;5043690;28;20493;-77
2022/07/08 12:19:00;;;;;;;5.80;1.90;;;21.60;57.90;;;;;;5045264;28;21045;-78
2022/07/08 12:21:28;;;;;;;5.50;1.50;;;21.60;57.60;;;;;;5040543;28;20543;-77
2022/07/08 12:24:00;;;;;;;5.40;1.67;;;21.60;57.50;;;;;;5029505;28;20483;-77
2022/07/08 12:26:29;;;;;;;5.10;1.80;;;21.50;57.10;;;;;;5033796;28;20485;-77
2022/07/08 12:28:58;;;;;;;7.33;1.50;;;21.50;57.20;;;;;;5046879;28;20451;-78
2022/07/08 12:31:37;;;;;;;6.10;1.80;;;21.40;57.20;;;;;;5044681;28;20480;-78
2022/07/08 12:34:08;;;;;;;4.40;1.50;;;21.50;57.20;;;;;;5045288;28;20447;-76
2022/07/08 12:36:36;;;;;;;5.13;1.50;;;21.40;57.10;;;;;;5043236;28;20495;-76
2022/07/08 12:39:17;;;;;;;6.63;1.80;;;21.40;57.10;;;;;;5033615;28;20775;-77
2022/07/08 12:41:57;;;;;;;4.20;1.20;;;21.50;57.00;;;;;;5019879;28;20467;-78
2022/07/08 12:44:33;;;;;;;6.37;1.87;;;21.50;57.00;;;;;;5041407;28;20538;-74
2022/07/08 12:47:03;;;;;;;9.43;2.60;;;21.50;57.00;;;;;;5046023;28;21075;-78
2022/07/08 12:49:32;;;;;;;6.83;1.70;;;21.60;57.00;;;;;;5045615;28;20474;-77
2022/07/08 12:52:02;;;;;;;7.53;1.43;;;21.60;56.80;;;;;;5039010;28;20533;-77
2022/07/08 12:54:33;;;;;;;7.23;1.87;;;21.70;56.80;;;;;;5021515;28;20468;-77
2022/07/08 12:57:02;;;;;;;5.07;1.60;;;21.70;56.90;;;;;;5047822;28;21024;-77
2022/07/08 12:59:31;;;;;;;6.27;1.60;;;21.80;56.90;;;;;;5043092;28;20465;-77
2022/07/08 13:01:59;;;;;;;6.20;1.77;;;21.80;56.80;;;;;;5029665;28;20476;-77
2022/07/08 13:04:29;;;;;;;6.13;1.97;;;21.90;56.70;;;;;;5045490;28;20453;-77
2022/07/08 13:06:58;;;;;;;4.70;1.40;;;21.90;56.60;;;;;;5026023;28;20472;-77